sensor_id;sensor_type;location;lat;lon;timestamp;pressure;altitude;pressure_sealevel;temperature;humidity
10732;BME280;74907;42.812;23.216;2024-03-22T00:01:53;95551.78;;;5.19;59.50
10732;BME280;74907;42.812;23.216;2024-03-22T00:04:19;95546.72;;;5.16;59.33
10732;BME280;74907;42.812;23.216;2024-03-22T00:06:47;95553.97;;;5.07;59.97
10732;BME280;74907;42.812;23.216;2024-03-22T00:09:13;95550.34;;;4.91;60.81
10732;BME280;74907;42.812;23.216;2024-03-22T00:11:41;95550.38;;;4.69;62.15
10732;BME280;74907;42.812;23.216;2024-03-22T00:14:07;95546.22;;;4.65;62.17
10732;BME280;74907;42.812;23.216;2024-03-22T00:16:35;95549.88;;;4.60;62.50
10732;BME280;74907;42.812;23.216;2024-03-22T00:19:01;95548.25;;;4.57;62.80
10732;BME280;74907;42.812;23.216;2024-03-22T00:21:28;95539.75;;;4.55;62.36
10732;BME280;74907;42.812;23.216;2024-03-22T00:23:55;95547.06;;;4.44;62.83
10732;BME280;74907;42.812;23.216;2024-03-22T00:26:21;95544.13;;;4.31;63.22
10732;BME280;74907;42.812;23.216;2024-03-22T00:28:47;95539.41;;;4.21;63.71
10732;BME280;74907;42.812;23.216;2024-03-22T00:31:14;95539.94;;;4.29;64.27
10732;BME280;74907;42.812;23.216;2024-03-22T00:33:41;95544.97;;;4.32;64.24
10732;BME280;74907;42.812;23.216;2024-03-22T00:36:08;95537.31;;;4.30;64.54
10732;BME280;74907;42.812;23.216;2024-03-22T00:38:34;95544.44;;;4.24;64.81
10732;BME280;74907;42.812;23.216;2024-03-22T00:41:01;95550.31;;;4.27;64.68
10732;BME280;74907;42.812;23.216;2024-03-22T00:43:27;95544.63;;;4.19;64.35
10732;BME280;74907;42.812;23.216;2024-03-22T00:45:53;95546.44;;;4.16;64.66
10732;BME280;74907;42.812;23.216;2024-03-22T00:48:19;95543.53;;;4.25;64.46
10732;BME280;74907;42.812;23.216;2024-03-22T00:50:47;95548.41;;;4.09;65.20
10732;BME280;74907;42.812;23.216;2024-03-22T00:53:13;95544.50;;;3.99;65.53
10732;BME280;74907;42.812;23.216;2024-03-22T00:55:40;95548.75;;;4.00;65.36
10732;BME280;74907;42.812;23.216;2024-03-22T00:58:05;95540.31;;;3.96;64.54
10732;BME280;74907;42.812;23.216;2024-03-22T01:00:32;95553.63;;;3.84;64.79
10732;BME280;74907;42.812;23.216;2024-03-22T01:02:58;95555.44;;;3.82;65.83
10732;BME280;74907;42.812;23.216;2024-03-22T01:05:24;95554.75;;;3.77;65.57
10732;BME280;74907;42.812;23.216;2024-03-22T01:07:52;95550.84;;;3.67;66.41
10732;BME280;74907;42.812;23.216;2024-03-22T01:10:19;95547.63;;;3.60;66.67
10732;BME280;74907;42.812;23.216;2024-03-22T01:12:45;95547.22;;;3.47;67.07
10732;BME280;74907;42.812;23.216;2024-03-22T01:15:12;95553.50;;;3.40;67.33
10732;BME280;74907;42.812;23.216;2024-03-22T01:17:37;95557.13;;;3.35;66.77
10732;BME280;74907;42.812;23.216;2024-03-22T01:20:07;95555.53;;;3.31;65.74
10732;BME280;74907;42.812;23.216;2024-03-22T01:22:32;95558.44;;;3.22;64.87
10732;BME280;74907;42.812;23.216;2024-03-22T01:25:00;95559.38;;;3.19;65.64
10732;BME280;74907;42.812;23.216;2024-03-22T01:27:26;95559.44;;;3.17;65.29
10732;BME280;74907;42.812;23.216;2024-03-22T01:29:53;95559.38;;;3.19;65.97
10732;BME280;74907;42.812;23.216;2024-03-22T01:32:18;95562.84;;;3.18;65.63
10732;BME280;74907;42.812;23.216;2024-03-22T01:34:45;95559.38;;;3.19;65.63
10732;BME280;74907;42.812;23.216;2024-03-22T01:37:11;95550.03;;;3.16;65.60
10732;BME280;74907;42.812;23.216;2024-03-22T01:39:37;95557.03;;;3.13;65.25
10732;BME280;74907;42.812;23.216;2024-03-22T01:42:05;95555.53;;;3.06;65.62
10732;BME280;74907;42.812;23.216;2024-03-22T01:44:32;95560.81;;;3.01;64.72
10732;BME280;74907;42.812;23.216;2024-03-22T01:46:58;95555.78;;;2.98;65.62
10732;BME280;74907;42.812;23.216;2024-03-22T01:49:26;95556.88;;;2.91;65.82
10732;BME280;74907;42.812;23.216;2024-03-22T01:51:52;95554.41;;;2.88;66.45
10732;BME280;74907;42.812;23.216;2024-03-22T01:54:20;95552.81;;;2.84;66.40
10732;BME280;74907;42.812;23.216;2024-03-22T01:56:46;95558.91;;;2.81;65.81
10732;BME280;74907;42.812;23.216;2024-03-22T01:59:14;95555.81;;;2.72;66.19
10732;BME280;74907;42.812;23.216;2024-03-22T02:01:41;95561.88;;;2.69;66.35
10732;BME280;74907;42.812;23.216;2024-03-22T02:04:09;95557.16;;;2.56;66.11
10732;BME280;74907;42.812;23.216;2024-03-22T02:06:35;95559.81;;;2.52;65.54
10732;BME280;74907;42.812;23.216;2024-03-22T02:09:02;95566.16;;;2.42;66.22
10732;BME280;74907;42.812;23.216;2024-03-22T02:11:30;95557.88;;;2.33;66.46
10732;BME280;74907;42.812;23.216;2024-03-22T02:13:57;95560.13;;;2.15;66.38
10732;BME280;74907;42.812;23.216;2024-03-22T02:16:24;95555.09;;;2.12;66.54
10732;BME280;74907;42.812;23.216;2024-03-22T02:18:51;95558.69;;;2.05;67.65
10732;BME280;74907;42.812;23.216;2024-03-22T02:21:17;95563.19;;;1.99;67.87
10732;BME280;74907;42.812;23.216;2024-03-22T02:23:45;95558.97;;;1.96;67.78
10732;BME280;74907;42.812;23.216;2024-03-22T02:26:11;95565.69;;;2.00;68.77
10732;BME280;74907;42.812;23.216;2024-03-22T02:28:37;95559.69;;;2.01;68.39
10732;BME280;74907;42.812;23.216;2024-03-22T02:31:03;95570.00;;;2.00;67.89
10732;BME280;74907;42.812;23.216;2024-03-22T02:33:30;95569.09;;;2.01;68.42
10732;BME280;74907;42.812;23.216;2024-03-22T02:35:56;95576.09;;;1.96;69.13
10732;BME280;74907;42.812;23.216;2024-03-22T02:38:23;95578.16;;;1.84;69.30
10732;BME280;74907;42.812;23.216;2024-03-22T02:40:52;95587.44;;;1.88;69.60
10732;BME280;74907;42.812;23.216;2024-03-22T02:43:19;95577.59;;;2.03;69.38
10732;BME280;74907;42.812;23.216;2024-03-22T02:45:46;95579.34;;;2.02;69.14
10732;BME280;74907;42.812;23.216;2024-03-22T02:48:13;95573.63;;;1.93;69.77
10732;BME280;74907;42.812;23.216;2024-03-22T02:50:39;95584.97;;;1.85;69.60
10732;BME280;74907;42.812;23.216;2024-03-22T02:53:06;95583.94;;;1.91;69.46
10732;BME280;74907;42.812;23.216;2024-03-22T02:55:36;95587.44;;;1.88;70.10
10732;BME280;74907;42.812;23.216;2024-03-22T02:58:05;95586.59;;;1.88;70.42
10732;BME280;74907;42.812;23.216;2024-03-22T03:00:30;95589.97;;;1.90;70.63
10732;BME280;74907;42.812;23.216;2024-03-22T03:02:58;95596.19;;;1.81;70.23
10732;BME280;74907;42.812;23.216;2024-03-22T03:05:24;95590.84;;;1.89;70.76
10732;BME280;74907;42.812;23.216;2024-03-22T03:07:50;95583.09;;;1.90;70.02
10732;BME280;74907;42.812;23.216;2024-03-22T03:10:16;95593.28;;;1.94;70.97
10732;BME280;74907;42.812;23.216;2024-03-22T03:12:43;95593.94;;;2.00;69.64
10732;BME280;74907;42.812;23.216;2024-03-22T03:15:10;95589.00;;;1.94;69.67
10732;BME280;74907;42.812;23.216;2024-03-22T03:17:37;95584.75;;;1.93;70.00
10732;BME280;74907;42.812;23.216;2024-03-22T03:20:03;95597.63;;;1.92;70.87
10732;BME280;74907;42.812;23.216;2024-03-22T03:22:33;95594.47;;;1.82;69.95
10732;BME280;74907;42.812;23.216;2024-03-22T03:24:58;95596.38;;;1.75;70.96
10732;BME280;74907;42.812;23.216;2024-03-22T03:27:25;95600.81;;;1.70;70.99
10732;BME280;74907;42.812;23.216;2024-03-22T03:29:51;95605.09;;;1.70;70.79
10732;BME280;74907;42.812;23.216;2024-03-22T03:32:19;95609.69;;;1.58;71.75
10732;BME280;74907;42.812;23.216;2024-03-22T03:34:45;95617.78;;;1.74;72.01
10732;BME280;74907;42.812;23.216;2024-03-22T03:37:11;95615.41;;;1.68;71.83
10732;BME280;74907;42.812;23.216;2024-03-22T03:39:37;95622.47;;;1.60;71.87
10732;BME280;74907;42.812;23.216;2024-03-22T03:42:04;95627.63;;;1.58;71.55
10732;BME280;74907;42.812;23.216;2024-03-22T03:44:30;95622.56;;;1.57;71.00
10732;BME280;74907;42.812;23.216;2024-03-22T03:46:56;95631.13;;;1.54;71.00
10732;BME280;74907;42.812;23.216;2024-03-22T03:49:27;95623.56;;;1.50;71.22
10732;BME280;74907;42.812;23.216;2024-03-22T03:51:53;95630.88;;;1.33;71.06
10732;BME280;74907;42.812;23.216;2024-03-22T03:54:19;95631.75;;;1.32;70.90
10732;BME280;74907;42.812;23.216;2024-03-22T03:56:46;95632.63;;;1.31;71.15
10732;BME280;74907;42.812;23.216;2024-03-22T03:59:12;95633.63;;;1.25;72.33
10732;BME280;74907;42.812;23.216;2024-03-22T04:01:38;95633.56;;;1.28;72.11
10732;BME280;74907;42.812;23.216;2024-03-22T04:04:04;95643.44;;;1.42;71.24
10732;BME280;74907;42.812;23.216;2024-03-22T04:06:32;95644.88;;;1.52;70.90
10732;BME280;74907;42.812;23.216;2024-03-22T04:08:59;95643.88;;;1.25;70.37
10732;BME280;74907;42.812;23.216;2024-03-22T04:11:28;95654.88;;;0.94;70.85
10732;BME280;74907;42.812;23.216;2024-03-22T04:13:53;95651.31;;;1.00;71.46
10732;BME280;74907;42.812;23.216;2024-03-22T04:16:20;95660.19;;;0.87;71.37
10732;BME280;74907;42.812;23.216;2024-03-22T04:18:46;95658.81;;;0.74;72.90
10732;BME280;74907;42.812;23.216;2024-03-22T04:21:12;95656.13;;;0.78;71.95
10732;BME280;74907;42.812;23.216;2024-03-22T04:23:39;95664.69;;;0.77;72.63
10732;BME280;74907;42.812;23.216;2024-03-22T04:26:06;95660.81;;;0.61;73.19
10732;BME280;74907;42.812;23.216;2024-03-22T04:28:32;95662.25;;;0.73;72.94
10732;BME280;74907;42.812;23.216;2024-03-22T04:30:59;95663.78;;;0.80;73.79
10732;BME280;74907;42.812;23.216;2024-03-22T04:33:25;95673.97;;;0.83;73.07
10732;BME280;74907;42.812;23.216;2024-03-22T04:35:53;95676.34;;;0.90;73.69
10732;BME280;74907;42.812;23.216;2024-03-22T04:38:18;95687.22;;;1.00;72.72
10732;BME280;74907;42.812;23.216;2024-03-22T04:40:46;95684.69;;;0.99;73.24
10732;BME280;74907;42.812;23.216;2024-03-22T04:43:14;95688.81;;;1.06;73.17
10732;BME280;74907;42.812;23.216;2024-03-22T04:45:41;95685.19;;;1.14;72.69
10732;BME280;74907;42.812;23.216;2024-03-22T04:48:07;95689.16;;;1.26;71.74
10732;BME280;74907;42.812;23.216;2024-03-22T04:50:34;95685.56;;;1.33;72.18
10732;BME280;74907;42.812;23.216;2024-03-22T04:53:00;95691.50;;;1.35;71.42
10732;BME280;74907;42.812;23.216;2024-03-22T04:55:27;95685.13;;;1.50;70.98
10732;BME280;74907;42.812;23.216;2024-03-22T04:57:54;95679.75;;;1.61;71.47
10732;BME280;74907;42.812;23.216;2024-03-22T05:00:21;95686.25;;;1.74;70.56
10732;BME280;74907;42.812;23.216;2024-03-22T05:02:46;95689.22;;;1.89;70.01
10732;BME280;74907;42.812;23.216;2024-03-22T05:05:13;95696.56;;;2.03;70.12
10732;BME280;74907;42.812;23.216;2024-03-22T05:07:39;95692.91;;;2.12;70.23
10732;BME280;74907;42.812;23.216;2024-03-22T05:10:06;95699.44;;;2.24;70.67
10732;BME280;74907;42.812;23.216;2024-03-22T05:12:32;95695.13;;;2.53;69.72
10732;BME280;74907;42.812;23.216;2024-03-22T05:15:00;95695.03;;;2.86;69.43
10732;BME280;74907;42.812;23.216;2024-03-22T05:17:26;95697.69;;;3.37;67.59
10732;BME280;74907;42.812;23.216;2024-03-22T05:19:54;95694.94;;;3.93;65.52
10732;BME280;74907;42.812;23.216;2024-03-22T05:22:20;95690.91;;;4.58;63.82
10732;BME280;74907;42.812;23.216;2024-03-22T05:24:47;95692.88;;;5.18;60.52
10732;BME280;74907;42.812;23.216;2024-03-22T05:27:13;95693.69;;;5.83;58.98
10732;BME280;74907;42.812;23.216;2024-03-22T05:29:40;95689.63;;;6.57;56.93
10732;BME280;74907;42.812;23.216;2024-03-22T05:32:07;95686.19;;;7.13;54.63
10732;BME280;74907;42.812;23.216;2024-03-22T05:34:33;95683.91;;;6.88;53.55
10732;BME280;74907;42.812;23.216;2024-03-22T05:37:00;95693.19;;;6.54;55.09
10732;BME280;74907;42.812;23.216;2024-03-22T05:39:27;95704.16;;;6.59;55.02
10732;BME280;74907;42.812;23.216;2024-03-22T05:41:53;95700.53;;;6.63;54.89
10732;BME280;74907;42.812;23.216;2024-03-22T05:44:21;95699.00;;;6.97;53.94
10732;BME280;74907;42.812;23.216;2024-03-22T05:46:47;95693.41;;;7.06;53.47
10732;BME280;74907;42.812;23.216;2024-03-22T05:49:15;95701.94;;;6.71;54.48
10732;BME280;74907;42.812;23.216;2024-03-22T05:51:41;95699.28;;;6.72;54.69
10732;BME280;74907;42.812;23.216;2024-03-22T05:54:07;95699.72;;;6.82;55.11
10732;BME280;74907;42.812;23.216;2024-03-22T05:56:33;95697.69;;;7.24;54.70
10732;BME280;74907;42.812;23.216;2024-03-22T05:59:00;95687.88;;;7.84;52.84
10732;BME280;74907;42.812;23.216;2024-03-22T06:01:26;95705.22;;;8.17;51.28
10732;BME280;74907;42.812;23.216;2024-03-22T06:03:52;95700.75;;;8.38;51.36
10732;BME280;74907;42.812;23.216;2024-03-22T06:06:19;95693.84;;;8.70;50.17
10732;BME280;74907;42.812;23.216;2024-03-22T06:08:50;95697.41;;;8.84;50.54
10732;BME280;74907;42.812;23.216;2024-03-22T06:11:18;95703.22;;;8.72;50.13
10732;BME280;74907;42.812;23.216;2024-03-22T06:13:45;95698.75;;;8.92;49.93
10732;BME280;74907;42.812;23.216;2024-03-22T06:16:10;95700.50;;;9.38;49.23
10732;BME280;74907;42.812;23.216;2024-03-22T06:18:37;95706.09;;;8.35;50.21
10732;BME280;74907;42.812;23.216;2024-03-22T06:21:03;95701.81;;;8.67;50.78
10732;BME280;74907;42.812;23.216;2024-03-22T06:23:31;95697.25;;;9.03;50.59
10732;BME280;74907;42.812;23.216;2024-03-22T06:25:57;95694.72;;;9.33;49.67
10732;BME280;74907;42.812;23.216;2024-03-22T06:28:26;95696.47;;;10.08;47.95
10732;BME280;74907;42.812;23.216;2024-03-22T06:30:52;95691.16;;;10.97;46.67
10732;BME280;74907;42.812;23.216;2024-03-22T06:33:19;95689.81;;;11.72;43.74
10732;BME280;74907;42.812;23.216;2024-03-22T06:35:46;95686.31;;;12.38;42.62
10732;BME280;74907;42.812;23.216;2024-03-22T06:38:12;95687.72;;;13.55;40.14
10732;BME280;74907;42.812;23.216;2024-03-22T06:40:39;95689.75;;;14.10;38.39
10732;BME280;74907;42.812;23.216;2024-03-22T06:43:06;95687.84;;;14.12;38.63
10732;BME280;74907;42.812;23.216;2024-03-22T06:45:32;95685.78;;;15.40;36.09
10732;BME280;74907;42.812;23.216;2024-03-22T06:47:59;95693.09;;;14.70;36.42
10732;BME280;74907;42.812;23.216;2024-03-22T06:50:24;95688.94;;;16.09;34.92
10732;BME280;74907;42.812;23.216;2024-03-22T06:52:51;95683.00;;;18.10;32.17
10732;BME280;74907;42.812;23.216;2024-03-22T06:55:18;95694.78;;;18.35;30.90
10732;BME280;74907;42.812;23.216;2024-03-22T06:57:46;95690.19;;;18.17;31.36
10732;BME280;74907;42.812;23.216;2024-03-22T07:00:13;95692.13;;;18.44;30.38
10732;BME280;74907;42.812;23.216;2024-03-22T07:02:40;95688.00;;;18.03;32.09
10732;BME280;74907;42.812;23.216;2024-03-22T07:05:07;95690.69;;;18.88;30.47
10732;BME280;74907;42.812;23.216;2024-03-22T07:07:34;95682.94;;;19.97;29.46
10732;BME280;74907;42.812;23.216;2024-03-22T07:09:59;95678.94;;;20.46;28.79
10732;BME280;74907;42.812;23.216;2024-03-22T07:12:26;95682.84;;;20.06;28.78
10732;BME280;74907;42.812;23.216;2024-03-22T07:14:54;95682.69;;;20.26;28.75
10732;BME280;74907;42.812;23.216;2024-03-22T07:17:21;95682.19;;;20.84;28.62
10732;BME280;74907;42.812;23.216;2024-03-22T07:19:50;95684.34;;;20.27;28.60
10732;BME280;74907;42.812;23.216;2024-03-22T07:22:17;95677.28;;;20.97;27.70
10732;BME280;74907;42.812;23.216;2024-03-22T07:24:43;95681.94;;;20.77;27.85
10732;BME280;74907;42.812;23.216;2024-03-22T07:27:10;95682.16;;;21.09;27.94
10732;BME280;74907;42.812;23.216;2024-03-22T07:29:36;95687.06;;;19.81;28.71
10732;BME280;74907;42.812;23.216;2024-03-22T07:32:04;95687.88;;;19.64;29.50
10732;BME280;74907;42.812;23.216;2024-03-22T07:34:31;95687.19;;;19.35;29.68
10732;BME280;74907;42.812;23.216;2024-03-22T07:36:58;95687.38;;;19.14;29.97
10732;BME280;74907;42.812;23.216;2024-03-22T07:39:23;95689.38;;;18.26;31.34
10732;BME280;74907;42.812;23.216;2024-03-22T07:41:50;95692.22;;;17.16;33.20
10732;BME280;74907;42.812;23.216;2024-03-22T07:44:16;95691.44;;;16.53;33.95
10732;BME280;74907;42.812;23.216;2024-03-22T07:46:45;95695.00;;;16.21;34.44
10732;BME280;74907;42.812;23.216;2024-03-22T07:49:12;95686.84;;;16.45;35.02
10732;BME280;74907;42.812;23.216;2024-03-22T07:51:39;95690.53;;;16.01;36.28
10732;BME280;74907;42.812;23.216;2024-03-22T07:54:05;95692.94;;;16.25;35.54
10732;BME280;74907;42.812;23.216;2024-03-22T07:56:31;95689.94;;;15.97;35.99
10732;BME280;74907;42.812;23.216;2024-03-22T07:58:57;95690.09;;;15.64;36.28
10732;BME280;74907;42.812;23.216;2024-03-22T08:01:24;95688.31;;;15.31;37.01
10732;BME280;74907;42.812;23.216;2024-03-22T08:03:50;95682.22;;;15.64;36.22
10732;BME280;74907;42.812;23.216;2024-03-22T08:06:18;95697.28;;;14.83;36.85
10732;BME280;74907;42.812;23.216;2024-03-22T08:08:44;95695.25;;;14.18;38.96
10732;BME280;74907;42.812;23.216;2024-03-22T08:11:11;95698.19;;;14.49;38.19
10732;BME280;74907;42.812;23.216;2024-03-22T08:13:37;95697.50;;;14.58;38.86
10732;BME280;74907;42.812;23.216;2024-03-22T08:16:04;95688.81;;;14.91;37.48
10732;BME280;74907;42.812;23.216;2024-03-22T08:18:31;95685.72;;;14.97;36.78
10732;BME280;74907;42.812;23.216;2024-03-22T08:20:58;95684.28;;;14.93;37.08
10732;BME280;74907;42.812;23.216;2024-03-22T08:23:25;95686.19;;;14.69;37.30
10732;BME280;74907;42.812;23.216;2024-03-22T08:25:52;95692.28;;;14.69;37.77
10732;BME280;74907;42.812;23.216;2024-03-22T08:28:18;95686.19;;;14.58;37.33
10732;BME280;74907;42.812;23.216;2024-03-22T08:30:45;95683.59;;;14.69;37.69
10732;BME280;74907;42.812;23.216;2024-03-22T08:33:10;95678.47;;;14.78;37.65
10732;BME280;74907;42.812;23.216;2024-03-22T08:35:37;95670.22;;;14.83;37.38
10732;BME280;74907;42.812;23.216;2024-03-22T08:38:04;95671.66;;;14.98;38.38
10732;BME280;74907;42.812;23.216;2024-03-22T08:40:36;95675.84;;;14.78;37.32
10732;BME280;74907;42.812;23.216;2024-03-22T08:43:03;95676.78;;;14.77;37.21
10732;BME280;74907;42.812;23.216;2024-03-22T08:45:30;95681.88;;;14.10;38.30
10732;BME280;74907;42.812;23.216;2024-03-22T08:47:55;95674.44;;;14.28;38.83
10732;BME280;74907;42.812;23.216;2024-03-22T08:50:22;95674.00;;;14.45;38.60
10732;BME280;74907;42.812;23.216;2024-03-22T08:52:48;95673.59;;;14.39;38.09
10732;BME280;74907;42.812;23.216;2024-03-22T08:55:14;95673.13;;;14.34;38.28
10732;BME280;74907;42.812;23.216;2024-03-22T08:57:42;95672.09;;;14.47;38.23
10732;BME280;74907;42.812;23.216;2024-03-22T09:00:10;95669.41;;;14.14;38.83
10732;BME280;74907;42.812;23.216;2024-03-22T09:02:36;95670.84;;;14.29;39.01
10732;BME280;74907;42.812;23.216;2024-03-22T09:05:03;95674.41;;;14.17;37.84
10732;BME280;74907;42.812;23.216;2024-03-22T09:07:30;95666.34;;;14.31;39.40
10732;BME280;74907;42.812;23.216;2024-03-22T09:09:56;95661.91;;;14.20;38.84
10732;BME280;74907;42.812;23.216;2024-03-22T09:12:23;95665.38;;;14.21;39.03
10732;BME280;74907;42.812;23.216;2024-03-22T09:14:50;95660.25;;;14.19;38.20
10732;BME280;74907;42.812;23.216;2024-03-22T09:17:16;95655.13;;;14.18;39.31
10732;BME280;74907;42.812;23.216;2024-03-22T09:19:42;95656.31;;;14.25;38.04
10732;BME280;74907;42.812;23.216;2024-03-22T09:22:09;95653.13;;;14.21;39.72
10732;BME280;74907;42.812;23.216;2024-03-22T09:24:36;95649.09;;;14.40;38.80
10732;BME280;74907;42.812;23.216;2024-03-22T09:27:02;95641.22;;;14.40;38.12
10732;BME280;74907;42.812;23.216;2024-03-22T09:29:34;95643.19;;;14.60;38.69
10732;BME280;74907;42.812;23.216;2024-03-22T09:32:01;95642.34;;;14.48;37.91
10732;BME280;74907;42.812;23.216;2024-03-22T09:34:28;95646.81;;;14.35;37.92
10732;BME280;74907;42.812;23.216;2024-03-22T09:36:55;95632.22;;;14.44;38.79
10732;BME280;74907;42.812;23.216;2024-03-22T09:39:21;95627.69;;;14.79;37.87
10732;BME280;74907;42.812;23.216;2024-03-22T09:41:50;95631.38;;;14.99;37.78
10732;BME280;74907;42.812;23.216;2024-03-22T09:44:18;95621.78;;;15.32;39.09
10732;BME280;74907;42.812;23.216;2024-03-22T09:46:46;95617.88;;;15.26;38.01
10732;BME280;74907;42.812;23.216;2024-03-22T09:49:14;95611.22;;;15.11;37.90
10732;BME280;74907;42.812;23.216;2024-03-22T09:51:41;95621.63;;;14.90;38.40
10732;BME280;74907;42.812;23.216;2024-03-22T09:54:08;95621.03;;;14.87;38.43
10732;BME280;74907;42.812;23.216;2024-03-22T09:56:38;95609.72;;;14.52;37.97
10732;BME280;74907;42.812;23.216;2024-03-22T09:59:04;95612.56;;;14.94;38.14
10732;BME280;74907;42.812;23.216;2024-03-22T10:01:31;95616.22;;;15.03;37.45
10732;BME280;74907;42.812;23.216;2024-03-22T10:03:57;95615.91;;;14.85;37.49
10732;BME280;74907;42.812;23.216;2024-03-22T10:06:25;95613.28;;;14.85;37.19
10732;BME280;74907;42.812;23.216;2024-03-22T10:08:51;95612.06;;;15.00;38.58
10732;BME280;74907;42.812;23.216;2024-03-22T10:11:18;95614.91;;;15.08;37.12
10732;BME280;74907;42.812;23.216;2024-03-22T10:13:44;95601.91;;;15.18;38.55
10732;BME280;74907;42.812;23.216;2024-03-22T10:16:12;95606.97;;;15.42;36.79
10732;BME280;74907;42.812;23.216;2024-03-22T10:18:38;95602.72;;;15.30;35.83
10732;BME280;74907;42.812;23.216;2024-03-22T10:21:05;95604.97;;;15.34;36.81
10732;BME280;74907;42.812;23.216;2024-03-22T10:23:32;95605.13;;;15.54;37.24
10732;BME280;74907;42.812;23.216;2024-03-22T10:26:00;95601.69;;;15.64;36.07
10732;BME280;74907;42.812;23.216;2024-03-22T10:28:26;95598.97;;;15.43;36.27
10732;BME280;74907;42.812;23.216;2024-03-22T10:30:53;95594.59;;;15.33;36.00
10732;BME280;74907;42.812;23.216;2024-03-22T10:33:19;95584.75;;;15.46;36.83
10732;BME280;74907;42.812;23.216;2024-03-22T10:35:50;95584.22;;;15.31;36.30
10732;BME280;74907;42.812;23.216;2024-03-22T10:38:18;95578.66;;;15.25;36.18
10732;BME280;74907;42.812;23.216;2024-03-22T10:40:47;95565.88;;;15.52;35.79
10732;BME280;74907;42.812;23.216;2024-03-22T10:43:13;95574.22;;;15.57;34.87
10732;BME280;74907;42.812;23.216;2024-03-22T10:45:40;95571.91;;;15.43;34.96
10732;BME280;74907;42.812;23.216;2024-03-22T10:48:09;95570.59;;;15.37;35.40
10732;BME280;74907;42.812;23.216;2024-03-22T10:50:39;95562.16;;;15.34;34.64
10732;BME280;74907;42.812;23.216;2024-03-22T10:53:07;95568.91;;;15.47;34.66
10732;BME280;74907;42.812;23.216;2024-03-22T10:55:35;95561.28;;;15.44;34.70
10732;BME280;74907;42.812;23.216;2024-03-22T10:58:04;95563.00;;;15.34;34.56
10732;BME280;74907;42.812;23.216;2024-03-22T11:00:32;95556.34;;;15.30;34.75
10732;BME280;74907;42.812;23.216;2024-03-22T11:02:58;95554.66;;;15.29;35.08
10732;BME280;74907;42.812;23.216;2024-03-22T11:05:26;95556.03;;;15.12;35.53
10732;BME280;74907;42.812;23.216;2024-03-22T11:07:59;95551.59;;;15.24;35.82
10732;BME280;74907;42.812;23.216;2024-03-22T11:10:28;95549.03;;;15.34;35.52
10732;BME280;74907;42.812;23.216;2024-03-22T11:12:55;95551.16;;;15.40;35.74
10732;BME280;74907;42.812;23.216;2024-03-22T11:15:23;95548.09;;;15.56;35.14
10732;BME280;74907;42.812;23.216;2024-03-22T11:17:49;95543.22;;;15.30;35.04
10732;BME280;74907;42.812;23.216;2024-03-22T11:20:16;95552.88;;;15.30;34.81
10732;BME280;74907;42.812;23.216;2024-03-22T11:22:42;95548.41;;;15.09;35.54
10732;BME280;74907;42.812;23.216;2024-03-22T11:25:09;95537.31;;;15.17;35.43
10732;BME280;74907;42.812;23.216;2024-03-22T11:27:35;95541.50;;;15.40;35.05
10732;BME280;74907;42.812;23.216;2024-03-22T11:30:01;95532.22;;;15.68;35.25
10732;BME280;74907;42.812;23.216;2024-03-22T11:32:30;95537.81;;;16.05;33.63
10732;BME280;74907;42.812;23.216;2024-03-22T11:34:56;95535.63;;;15.80;33.23
10732;BME280;74907;42.812;23.216;2024-03-22T11:37:22;95528.41;;;16.03;33.37
10732;BME280;74907;42.812;23.216;2024-03-22T11:39:49;95518.59;;;16.05;33.60
10732;BME280;74907;42.812;23.216;2024-03-22T11:42:15;95524.91;;;16.14;35.16
10732;BME280;74907;42.812;23.216;2024-03-22T11:44:43;95508.25;;;16.34;34.52
10732;BME280;74907;42.812;23.216;2024-03-22T11:47:09;95513.97;;;16.49;33.88
10732;BME280;74907;42.812;23.216;2024-03-22T11:49:37;95508.25;;;16.34;33.19
10732;BME280;74907;42.812;23.216;2024-03-22T11:52:03;95500.38;;;16.34;34.12
10732;BME280;74907;42.812;23.216;2024-03-22T11:54:30;95501.59;;;16.30;32.23
10732;BME280;74907;42.812;23.216;2024-03-22T11:56:56;95501.31;;;16.02;32.36
10732;BME280;74907;42.812;23.216;2024-03-22T11:59:23;95498.66;;;16.23;33.16
10732;BME280;74907;42.812;23.216;2024-03-22T12:01:48;95491.22;;;16.28;32.34
10732;BME280;74907;42.812;23.216;2024-03-22T12:04:15;95490.75;;;16.14;32.58
10732;BME280;74907;42.812;23.216;2024-03-22T12:06:43;95486.44;;;16.13;33.14
10732;BME280;74907;42.812;23.216;2024-03-22T12:09:10;95491.09;;;16.30;32.88
10732;BME280;74907;42.812;23.216;2024-03-22T12:11:38;95486.38;;;16.24;31.94
10732;BME280;74907;42.812;23.216;2024-03-22T12:14:04;95475.84;;;16.24;32.75
10732;BME280;74907;42.812;23.216;2024-03-22T12:16:30;95482.16;;;16.52;32.02
10732;BME280;74907;42.812;23.216;2024-03-22T12:18:57;95472.47;;;16.52;32.66
10732;BME280;74907;42.812;23.216;2024-03-22T12:21:23;95474.50;;;16.29;32.51
10732;BME280;74907;42.812;23.216;2024-03-22T12:23:51;95469.84;;;16.12;33.26
10732;BME280;74907;42.812;23.216;2024-03-22T12:26:16;95463.72;;;16.32;32.80
10732;BME280;74907;42.812;23.216;2024-03-22T12:28:43;95465.25;;;16.04;31.95
10732;BME280;74907;42.812;23.216;2024-03-22T12:31:09;95462.50;;;16.06;32.70
10732;BME280;74907;42.812;23.216;2024-03-22T12:33:36;95459.44;;;16.01;33.03
10732;BME280;74907;42.812;23.216;2024-03-22T12:36:03;95463.59;;;16.03;31.64
10732;BME280;74907;42.812;23.216;2024-03-22T12:38:29;95457.19;;;15.96;32.36
10732;BME280;74907;42.812;23.216;2024-03-22T12:40:57;95462.28;;;15.88;32.00
10732;BME280;74907;42.812;23.216;2024-03-22T12:43:24;95461.44;;;15.88;32.14
10732;BME280;74907;42.812;23.216;2024-03-22T12:45:50;95450.22;;;15.76;31.85
10732;BME280;74907;42.812;23.216;2024-03-22T12:48:17;95457.78;;;15.69;31.98
10732;BME280;74907;42.812;23.216;2024-03-22T12:50:42;95456.63;;;15.62;31.67
10732;BME280;74907;42.812;23.216;2024-03-22T12:53:09;95462.53;;;15.43;32.26